| time (UTC) | temp F | wind direction | speed knots | gust knots | rain 1hr in | rain 24hr in | rain mn in | humidity % | barometer mb |
| 20260509125537 | 47 | 235 | 1.7 | 2.6 | 0.00 | 0.16 | 0.16 | 96 | 1008.9 |
| 20260509125033 | 47 | 238 | 1.7 | 1.7 | 0.07 | 0.16 | 0.16 | 96 | 1008.8 |
| 20260509124530 | 47 | 241 | 2.6 | 7.0 | 0.07 | 0.16 | 0.16 | 96 | 1009.0 |
| 20260509124027 | 47 | 226 | 3.5 | 5.2 | 0.00 | 0.15 | 0.15 | 96 | 1008.9 |
| 20260509123525 | 47 | 219 | 6.1 | 7.8 | 0.05 | 0.15 | 0.15 | 96 | 1009.1 |
| 20260509123021 | 47 | 193 | 7.0 | 7.8 | 0.05 | 0.15 | 0.15 | 96 | 1009.1 |
| 20260509122518 | 47 | 171 | 3.5 | 7.8 | 0.00 | 0.14 | 0.14 | 96 | 1009.2 |
| 20260509122015 | 47 | 179 | 5.2 | 7.0 | 0.00 | 0.14 | 0.14 | 96 | 1009.3 |
| 20260509121511 | 47 | 184 | 3.5 | 7.0 | 0.07 | 0.14 | 0.14 | 96 | 1009.3 |
| 20260509121009 | 47 | 200 | 3.5 | 7.0 | 0.07 | 0.14 | 0.14 | 96 | 1009.3 |
| 20260509120507 | 46 | 203 | 3.5 | 7.0 | 0.07 | 0.13 | 0.13 | 96 | 1009.2 |
| 20260509120005 | 46 | 217 | 2.6 | 7.0 | 0.07 | 0.13 | 0.13 | 96 | 1009.5 |
| 20260509115502 | 46 | 152 | 2.6 | 7.0 | 0.00 | 0.12 | 0.12 | 96 | 1009.3 |
| 20260509114959 | 46 | 219 | 6.1 | 7.8 | 0.05 | 0.12 | 0.12 | 96 | 1009.4 |
| 20260509114458 | 46 | 219 | 1.7 | 5.2 | 0.05 | 0.12 | 0.12 | 96 | 1009.5 |
| 20260509113957 | 46 | 238 | 0.9 | 2.6 | 0.07 | 0.11 | 0.11 | 96 | 1009.3 |
| 20260509113454 | 46 | 178 | 2.6 | 2.6 | 0.12 | 0.10 | 0.10 | 96 | 1009.4 |
| 20260509112950 | 46 | 155 | 0.9 | 1.7 | 0.12 | 0.09 | 0.09 | 96 | 1009.4 |
| 20260509112448 | 46 | 176 | 3.5 | 3.5 | 0.05 | 0.08 | 0.08 | 96 | 1009.5 |
| 20260509111944 | 46 | 156 | 2.6 | 3.5 | 0.07 | 0.07 | 0.07 | 95 | 1009.6 |
| 20260509111442 | 46 | 203 | 1.7 | 1.7 | 0.07 | 0.07 | 0.07 | 95 | 1009.4 |
| 20260509110939 | 46 | 203 | 1.7 | 5.2 | 0.05 | 0.06 | 0.06 | 95 | 1009.5 |
| 20260509110435 | 46 | 145 | 2.6 | 6.1 | 0.05 | 0.06 | 0.06 | 95 | 1009.5 |
| 20260509105933 | 46 | 138 | 3.5 | 6.1 | 0.00 | 0.05 | 0.05 | 95 | 1009.4 |
| 20260509105431 | 46 | 149 | 1.7 | 3.5 | 0.07 | 0.05 | 0.05 | 95 | 1009.3 |
| 20260509104928 | 46 | 155 | 3.5 | 5.2 | 0.05 | 0.04 | 0.04 | 95 | 1009.2 |
| 20260509104425 | 46 | 219 | 1.7 | 3.5 | 0.12 | 0.04 | 0.04 | 94 | 1009.2 |
| 20260509103922 | 46 | 136 | 1.7 | 5.2 | 0.07 | 0.03 | 0.03 | 94 | 1009.0 |
| 20260509103419 | 46 | 128 | 2.6 | 5.2 | 0.05 | 0.02 | 0.02 | 94 | 1009.4 |
| 20260509102918 | 46 | 113 | 5.2 | 7.0 | 0.05 | 0.02 | 0.02 | 94 | 1009.1 |
| 20260509102415 | 46 | 147 | 4.3 | 7.0 | 0.07 | 0.01 | 0.01 | 93 | 1008.9 |
| 20260509101911 | 46 | 116 | 5.2 | 7.0 | 0.07 | 0.01 | 0.01 | 93 | 1009.0 |
| 20260509101407 | 46 | 140 | 6.1 | 9.6 | 0.00 | 0.00 | 0.00 | 93 | 1008.8 |
| 20260509100905 | 46 | 166 | 3.5 | 7.0 | 0.00 | 0.00 | 0.00 | 92 | 1008.8 |
| 20260509100401 | 46 | 134 | 4.3 | 7.0 | 0.00 | 0.00 | 0.00 | 91 | 1008.9 |
| 20260509095858 | 46 | 117 | 4.3 | 7.0 | 0.00 | 0.00 | 0.00 | 90 | 1009.1 |
| 20260509095356 | 46 | 198 | 3.5 | 5.2 | 0.00 | 0.00 | 0.00 | 90 | 1008.9 |
| 20260509094852 | 46 | 132 | 5.2 | 7.0 | 0.00 | 0.00 | 0.00 | 89 | 1009.0 |
| 20260509094349 | 46 | 142 | 5.2 | 6.1 | 0.00 | 0.00 | 0.00 | 88 | 1009.3 |
| 20260509093847 | 47 | 151 | 4.3 | 6.1 | 0.00 | 0.00 | 0.00 | 87 | 1009.1 |
| 20260509093344 | 47 | 176 | 4.3 | 8.7 | 0.00 | 0.00 | 0.00 | 88 | 1009.2 |
| 20260509092842 | 46 | 142 | 3.5 | 5.2 | 0.00 | 0.00 | 0.00 | 87 | 1009.2 |
| 20260509092340 | 46 | 140 | 2.6 | 3.5 | 0.00 | 0.00 | 0.00 | 87 | 1009.2 |
| 20260509091838 | 46 | 196 | 5.2 | 7.8 | 0.00 | 0.00 | 0.00 | 87 | 1009.1 |
| 20260509091334 | 47 | 206 | 4.3 | 6.1 | 0.00 | 0.00 | 0.00 | 86 | 1009.0 |
| 20260509090832 | 47 | 192 | 3.5 | 6.1 | 0.00 | 0.00 | 0.00 | 86 | 1009.0 |
| 20260509090329 | 47 | 198 | 4.3 | 7.8 | 0.00 | 0.00 | 0.00 | 86 | 1009.4 |
| 20260509085826 | 47 | 219 | 3.5 | 5.2 | 0.00 | 0.00 | 0.00 | 86 | 1009.0 |
| 20260509085323 | 47 | 202 | 1.7 | 2.6 | 0.00 | 0.00 | 0.00 | 86 | 1008.9 |
| 20260509084820 | 46 | 167 | 3.5 | 3.5 | 0.00 | 0.00 | 0.00 | 86 | 1009.1 |
| 20260509084317 | 46 | 178 | 1.7 | 5.2 | 0.00 | 0.00 | 0.00 | 86 | 1009.1 |
| 20260509083814 | 46 | 155 | 1.7 | 3.5 | 0.00 | 0.00 | 0.00 | 86 | 1008.8 |
| 20260509083311 | 46 | 170 | 1.7 | 3.5 | 0.00 | 0.00 | 0.00 | 85 | 1009.3 |
| 20260509082808 | 46 | 170 | 1.7 | 3.5 | 0.00 | 0.00 | 0.00 | 85 | 1009.3 |
| 20260509082307 | 46 | 204 | 3.5 | 5.2 | 0.00 | 0.00 | 0.00 | 86 | 1009.3 |
| 20260509081801 | 46 | 197 | 3.5 | 5.2 | 0.00 | 0.00 | 0.00 | 86 | 1009.5 |
| 20260509081259 | 46 | 198 | 2.6 | 2.6 | 0.00 | 0.00 | 0.00 | 85 | 1009.6 |
| 20260509080757 | 46 | 166 | 2.6 | 3.5 | 0.00 | 0.00 | 0.00 | 85 | 1009.3 |
| 20260509080254 | 46 | 162 | 2.6 | 2.6 | 0.00 | 0.00 | 0.00 | 85 | 1009.4 |
| 20260509075752 | 46 | 186 | 2.6 | 2.6 | 0.00 | 0.00 | 0.00 | 84 | 1009.5 |
| 20260509075249 | 46 | 172 | 2.6 | 3.5 | 0.00 | 0.00 | 0.00 | 84 | 1009.6 |
| 20260509074746 | 46 | 180 | 1.7 | 3.5 | 0.00 | 0.00 | 0.00 | 83 | 1009.7 |
| 20260509074244 | 46 | 156 | 2.6 | 3.5 | 0.00 | 0.00 | 0.00 | 82 | 1009.6 |
| 20260509073740 | 46 | 158 | 2.6 | 5.2 | 0.00 | 0.00 | 0.00 | 82 | 1009.9 |
| 20260509073236 | 46 | 161 | 1.7 | 2.6 | 0.00 | 0.00 | 0.00 | 81 | 1009.7 |
| 20260509072733 | 46 | 154 | 2.6 | 3.5 | 0.00 | 0.00 | 0.00 | 81 | 1010.0 |
| 20260509072230 | 46 | 158 | 1.7 | 3.5 | 0.00 | 0.00 | 0.00 | 79 | 1009.9 |
| 20260509071727 | 46 | 215 | 3.5 | 5.2 | 0.00 | 0.00 | 0.00 | 78 | 1009.6 |
| 20260509071224 | 46 | 148 | 2.6 | 3.5 | 0.00 | 0.00 | 0.00 | 77 | 1010.0 |
| 20260509070721 | 46 | 165 | 3.5 | 7.0 | 0.00 | 0.00 | 0.00 | 77 | 1009.9 |
| 20260509070217 | 46 | 177 | 3.5 | 5.2 | 0.00 | 0.00 | 0.00 | 75 | 1010.1 |
| 20260509065713 | 46 | 117 | 5.2 | 7.0 | 0.00 | 0.00 | 0.00 | 73 | 1010.2 |
| 20260509065209 | 46 | 137 | 4.3 | 6.1 | 0.00 | 0.00 | 0.00 | 71 | 1010.0 |
| 20260509064706 | 46 | 139 | 4.3 | 7.0 | 0.00 | 0.00 | 0.00 | 70 | 1010.2 |
| 20260509064204 | 46 | 181 | 4.3 | 5.2 | 0.00 | 0.00 | 0.00 | 70 | 1010.1 |
| 20260509063701 | 46 | 178 | 2.6 | 6.1 | 0.00 | 0.00 | 0.00 | 69 | 1010.2 |
| 20260509063157 | 46 | 141 | 3.5 | 5.2 | 0.00 | 0.00 | 0.00 | 68 | 1010.2 |
| 20260509062654 | 46 | 136 | 4.3 | 6.1 | 0.00 | 0.00 | 0.00 | 69 | 1010.5 |
| 20260509062152 | 45 | 148 | 4.3 | 5.2 | 0.00 | 0.00 | 0.00 | 68 | 1010.2 |
| 20260509061648 | 45 | 149 | 4.3 | 7.0 | 0.00 | 0.00 | 0.00 | 69 | 1010.4 |
| 20260509061146 | 45 | 150 | 2.6 | 2.6 | 0.00 | 0.00 | 0.00 | 68 | 1010.6 |
| 20260509060644 | 45 | 156 | 3.5 | 3.5 | 0.00 | 0.00 | 0.00 | 67 | 1010.7 |
| 20260509060139 | 45 | 198 | 0.9 | 1.7 | 0.00 | 0.00 | 0.00 | 65 | 1010.8 |
| 20260509055635 | 45 | 228 | 0.0 | 0.9 | 0.00 | 0.00 | 0.00 | 65 | 1010.7 |
| 20260509055131 | 45 | 190 | 0.0 | 0.9 | 0.00 | 0.00 | 0.00 | 66 | 1010.6 |
| 20260509054628 | 44 | 184 | 0.9 | 1.7 | 0.00 | 0.00 | 0.00 | 66 | 1010.6 |
| 20260509054125 | 44 | 161 | 1.7 | 2.6 | 0.00 | 0.00 | 0.00 | 67 | 1010.7 |
| 20260509053624 | 44 | 188 | 1.7 | 2.6 | 0.00 | 0.00 | 0.00 | 68 | 1011.1 |
| 20260509053120 | 44 | 155 | 1.7 | 1.7 | 0.00 | 0.00 | 0.00 | 68 | 1010.9 |
| 20260509052618 | 44 | 172 | 0.9 | 1.7 | 0.00 | 0.00 | 0.00 | 68 | 1011.0 |
| 20260509052116 | 44 | 183 | 0.9 | 1.7 | 0.00 | 0.00 | 0.00 | 67 | 1011.1 |
| 20260509051614 | 44 | 186 | 0.0 | 0.0 | 0.00 | 0.00 | 0.00 | 67 | 1011.1 |
| 20260509051110 | 44 | 283 | 0.0 | 0.0 | 0.00 | 0.00 | 0.00 | 66 | 1011.2 |
| 20260509050608 | 44 | 300 | 0.0 | 0.0 | 0.00 | 0.00 | 0.00 | 67 | 1010.9 |
| 20260509045601 | 43 | 69 | 0.0 | 0.0 | 0.00 | 0.00 | 0.00 | 69 | 1011.1 |
| 20260509045058 | 43 | 307 | 0.0 | 0.0 | 0.00 | 0.00 | 0.00 | 68 | 1010.9 |
| 20260509044556 | 44 | 258 | 0.0 | 0.0 | 0.00 | 0.00 | 0.00 | 67 | 1011.1 |
| 20260509044053 | 44 | 253 | 0.0 | 0.0 | 0.00 | 0.00 | 0.00 | 66 | 1010.9 |
| 20260509043549 | 44 | 96 | 0.0 | 0.0 | 0.00 | 0.00 | 0.00 | 66 | 1010.8 |
| 20260509043045 | 46 | 116 | 0.0 | 0.0 | 0.00 | 0.00 | 0.00 | 64 | 1010.9 |
| 20260509042541 | 46 | 128 | 0.0 | 1.7 | 0.00 | 0.00 | 0.00 | 62 | 1011.0 |
| 20260509042038 | 46 | 133 | 0.9 | 1.7 | 0.00 | 0.00 | 0.00 | 63 | 1011.1 |
| 20260509041534 | 45 | 112 | 1.7 | 2.6 | 0.00 | 0.00 | 0.00 | 64 | 1011.1 |
| 20260509041032 | 45 | 114 | 1.7 | 2.6 | 0.00 | 0.00 | 0.00 | 64 | 1011.0 |
| 20260509040530 | 45 | 120 | 1.7 | 3.5 | 0.00 | 0.00 | 0.00 | 63 | 1010.9 |
| 20260509040027 | 45 | 135 | 1.7 | 2.6 | 0.00 | 0.07 | 0.07 | 64 | 1011.1 |
| 20260509035524 | 45 | 119 | 3.5 | 3.5 | 0.00 | 0.07 | 0.07 | 64 | 1011.1 |
| 20260509035020 | 44 | 121 | 3.5 | 3.5 | 0.00 | 0.07 | 0.07 | 66 | 1011.0 |
| 20260509034519 | 44 | 111 | 2.6 | 2.6 | 0.00 | 0.07 | 0.07 | 67 | 1011.2 |
| 20260509034015 | 45 | 98 | 1.7 | 1.7 | 0.00 | 0.07 | 0.07 | 66 | 1011.3 |
| 20260509033512 | 45 | 91 | 0.9 | 2.6 | 0.00 | 0.07 | 0.07 | 65 | 1011.2 |
| 20260509033009 | 44 | 96 | 2.6 | 3.5 | 0.00 | 0.07 | 0.07 | 64 | 1011.1 |
| 20260509032506 | 45 | 95 | 2.6 | 2.6 | 0.00 | 0.07 | 0.07 | 65 | 1011.2 |
| 20260509032004 | 45 | 111 | 1.7 | 2.6 | 0.00 | 0.07 | 0.07 | 64 | 1011.6 |
| 20260509031501 | 45 | 105 | 3.5 | 3.5 | 0.00 | 0.07 | 0.07 | 63 | 1011.2 |
| 20260509030958 | 45 | 118 | 4.3 | 5.2 | 0.00 | 0.07 | 0.07 | 63 | 1011.6 |
| 20260509030456 | 44 | 91 | 1.7 | 1.7 | 0.00 | 0.07 | 0.07 | 65 | 1011.3 |
| 20260509025953 | 44 | 91 | 0.9 | 1.7 | 0.00 | 0.07 | 0.07 | 67 | 1011.4 |
| 20260509025449 | 45 | 93 | 1.7 | 2.6 | 0.00 | 0.07 | 0.07 | 66 | 1011.3 |
| 20260509024944 | 46 | 84 | 1.7 | 2.6 | 0.00 | 0.07 | 0.07 | 65 | 1011.3 |
| 20260509024440 | 45 | 95 | 4.3 | 5.2 | 0.00 | 0.07 | 0.07 | 64 | 1011.3 |
| 20260509023937 | 45 | 95 | 3.5 | 3.5 | 0.00 | 0.07 | 0.07 | 66 | 1011.2 |
| 20260509023434 | 46 | 86 | 1.7 | 2.6 | 0.00 | 0.07 | 0.07 | 66 | 1011.4 |
| 20260509022931 | 45 | 99 | 2.6 | 2.6 | 0.00 | 0.07 | 0.07 | 65 | 1011.4 |
| 20260509022428 | 45 | 123 | 2.6 | 2.6 | 0.00 | 0.07 | 0.07 | 66 | 1011.5 |
| 20260509021925 | 45 | 95 | 1.7 | 2.6 | 0.00 | 0.07 | 0.07 | 66 | 1011.4 |
| 20260509021422 | 45 | 107 | 0.9 | 1.7 | 0.00 | 0.07 | 0.07 | 65 | 1011.6 |
| 20260509020920 | 45 | 96 | 1.7 | 2.6 | 0.00 | 0.07 | 0.07 | 65 | 1011.7 |
| 20260509020418 | 45 | 91 | 1.7 | 1.7 | 0.00 | 0.07 | 0.07 | 64 | 1011.6 |
| 20260509015915 | 46 | 96 | 2.6 | 2.6 | 0.00 | 0.07 | 0.07 | 63 | 1011.6 |
| 20260509015414 | 46 | 105 | 1.7 | 2.6 | 0.00 | 0.07 | 0.07 | 63 | 1011.3 |
| 20260509014909 | 46 | 89 | 2.6 | 3.5 | 0.00 | 0.07 | 0.07 | 62 | 1011.5 |
| 20260509014406 | 46 | 108 | 0.9 | 2.6 | 0.00 | 0.07 | 0.07 | 60 | 1011.4 |
| 20260509013903 | 46 | 115 | 1.7 | 2.6 | 0.00 | 0.07 | 0.07 | 60 | 1011.3 |
| 20260509013400 | 47 | 86 | 1.7 | 2.6 | 0.00 | 0.07 | 0.07 | 59 | 1011.3 |
| 20260509012855 | 46 | 87 | 3.5 | 5.2 | 0.00 | 0.07 | 0.07 | 59 | 1011.3 |
| 20260509012352 | 46 | 77 | 1.7 | 2.6 | 0.00 | 0.07 | 0.07 | 58 | 1011.1 |
| 20260509011850 | 46 | 105 | 4.3 | 5.2 | 0.00 | 0.07 | 0.07 | 60 | 1011.2 |
| 20260509011347 | 46 | 87 | 2.6 | 3.5 | 0.00 | 0.07 | 0.07 | 58 | 1011.0 |
| 20260509010845 | 47 | 108 | 1.7 | 3.5 | 0.00 | 0.07 | 0.07 | 57 | 1011.0 |
| 20260509010342 | 46 | 86 | 2.6 | 2.6 | 0.00 | 0.07 | 0.07 | 59 | 1010.8 |
| 20260509005839 | 46 | 103 | 2.6 | 3.5 | 0.00 | 0.07 | 0.07 | 59 | 1011.0 |
| 20260509005337 | 47 | 91 | 1.7 | 3.5 | 0.00 | 0.07 | 0.07 | 56 | 1011.0 |
| 20260509004837 | 47 | 79 | 1.7 | 3.5 | 0.00 | 0.07 | 0.07 | 57 | 1010.9 |
| 20260509004333 | 47 | 94 | 3.5 | 3.5 | 0.00 | 0.07 | 0.07 | 56 | 1010.7 |
| 20260509003831 | 47 | 82 | 0.9 | 2.6 | 0.00 | 0.07 | 0.07 | 56 | 1010.7 |
| 20260509003329 | 47 | 69 | 1.7 | 1.7 | 0.00 | 0.07 | 0.07 | 55 | 1010.6 |
| 20260509002826 | 47 | 91 | 2.6 | 2.6 | 0.00 | 0.07 | 0.07 | 57 | 1010.5 |
| 20260509002323 | 47 | 93 | 2.6 | 3.5 | 0.00 | 0.07 | 0.07 | 56 | 1010.3 |
| 20260509001821 | 48 | 82 | 2.6 | 3.5 | 0.00 | 0.07 | 0.07 | 54 | 1010.5 |
| 20260509001316 | 48 | 124 | 1.7 | 2.6 | 0.00 | 0.07 | 0.07 | 56 | 1010.6 |
| 20260509000814 | 48 | 91 | 2.6 | 3.5 | 0.00 | 0.07 | 0.07 | 54 | 1010.5 |
| 20260509000312 | 48 | 81 | 2.6 | 5.2 | 0.00 | 0.07 | 0.07 | 54 | 1010.4 |
| 20260508235803 | 48 | 81 | 1.7 | 2.6 | 0.00 | 0.07 | 0.07 | 55 | 1010.3 |
| 20260508235300 | 49 | 97 | 1.7 | 2.6 | 0.00 | 0.07 | 0.07 | 53 | 1010.2 |
| 20260508234757 | 49 | 95 | 1.7 | 2.6 | 0.00 | 0.07 | 0.07 | 52 | 1010.4 |
| 20260508234253 | 50 | 93 | 1.7 | 2.6 | 0.00 | 0.07 | 0.07 | 52 | 1010.3 |
| 20260508233752 | 50 | 86 | 2.6 | 3.5 | 0.00 | 0.07 | 0.07 | 50 | 1010.2 |
| 20260508233250 | 51 | 86 | 0.9 | 2.6 | 0.00 | 0.07 | 0.07 | 50 | 1010.1 |
| 20260508232747 | 51 | 126 | 1.7 | 3.5 | 0.00 | 0.07 | 0.07 | 49 | 1010.2 |
| 20260508232243 | 51 | 114 | 0.9 | 1.7 | 0.00 | 0.07 | 0.07 | 48 | 1010.0 |
| 20260508231742 | 51 | 110 | 1.7 | 2.6 | 0.00 | 0.07 | 0.07 | 49 | 1010.0 |
| 20260508231238 | 52 | 93 | 0.9 | 3.5 | 0.00 | 0.07 | 0.07 | 48 | 1010.1 |
| 20260508230735 | 53 | 26 | 1.7 | 2.6 | 0.00 | 0.07 | 0.07 | 48 | 1009.9 |
| 20260508230231 | 52 | 12 | 0.0 | 3.5 | 0.00 | 0.07 | 0.07 | 48 | 1010.0 |
| 20260508225729 | 52 | 56 | 1.7 | 2.6 | 0.00 | 0.07 | 0.07 | 47 | 1010.0 |
| 20260508225225 | 53 | 69 | 1.7 | 2.6 | 0.00 | 0.07 | 0.07 | 48 | 1010.0 |
| 20260508224723 | 53 | 72 | 0.9 | 0.9 | 0.00 | 0.07 | 0.07 | 48 | 1010.3 |
| 20260508224220 | 53 | 356 | 2.6 | 3.5 | 0.00 | 0.07 | 0.07 | 46 | 1010.1 |
| 20260508223718 | 53 | 53 | 0.9 | 2.6 | 0.00 | 0.07 | 0.07 | 48 | 1010.2 |
| 20260508223215 | 53 | 42 | 1.7 | 2.6 | 0.00 | 0.07 | 0.07 | 50 | 1010.1 |
| 20260508222712 | 53 | 43 | 1.7 | 2.6 | 0.00 | 0.07 | 0.07 | 48 | 1010.0 |
| 20260508222210 | 54 | 272 | 1.7 | 5.2 | 0.00 | 0.07 | 0.07 | 48 | 1010.0 |
| 20260508221706 | 55 | 31 | 1.7 | 3.5 | 0.00 | 0.07 | 0.07 | 46 | 1010.0 |
| 20260508221201 | 54 | 250 | 0.0 | 1.7 | 0.00 | 0.07 | 0.07 | 46 | 1010.0 |
| 20260508220658 | 54 | 278 | 0.0 | 2.6 | 0.00 | 0.07 | 0.07 | 45 | 1010.1 |
| 20260508220155 | 55 | 299 | 5.2 | 7.8 | 0.00 | 0.07 | 0.07 | 45 | 1009.7 |
| 20260508215651 | 55 | 313 | 3.5 | 5.2 | 0.00 | 0.07 | 0.07 | 50 | 1010.0 |
| 20260508215148 | 56 | 291 | 2.6 | 8.7 | 0.00 | 0.07 | 0.07 | 44 | 1010.3 |
| 20260508214645 | 56 | 299 | 1.7 | 1.7 | 0.00 | 0.07 | 0.07 | 44 | 1010.1 |
| 20260508214142 | 55 | 344 | 0.9 | 3.5 | 0.00 | 0.07 | 0.07 | 42 | 1010.0 |
| 20260508213639 | 56 | 244 | 3.5 | 6.1 | 0.00 | 0.07 | 0.07 | 44 | 1010.2 |
| 20260508213135 | 55 | 300 | 3.5 | 7.8 | 0.00 | 0.07 | 0.07 | 43 | 1010.2 |
| 20260508212632 | 55 | 303 | 1.7 | 5.2 | 0.00 | 0.07 | 0.07 | 42 | 1010.3 |
| 20260508212128 | 55 | 5 | 2.6 | 6.1 | 0.00 | 0.07 | 0.07 | 43 | 1010.4 |
| 20260508211623 | 56 | 297 | 3.5 | 5.2 | 0.00 | 0.07 | 0.07 | 43 | 1010.3 |
| 20260508211120 | 55 | 289 | 0.9 | 3.5 | 0.00 | 0.07 | 0.07 | 48 | 1010.3 |
| 20260508210617 | 54 | 271 | 0.9 | 5.2 | 0.00 | 0.07 | 0.07 | 44 | 1010.4 |
| 20260508210114 | 53 | 294 | 1.7 | 3.5 | 0.00 | 0.07 | 0.07 | 47 | 1010.5 |
| 20260508205611 | 53 | 289 | 3.5 | 3.5 | 0.00 | 0.07 | 0.07 | 46 | 1010.5 |
| 20260508205108 | 52 | 235 | 0.9 | 1.7 | 0.00 | 0.07 | 0.07 | 48 | 1010.6 |
| 20260508204604 | 52 | 262 | 2.6 | 3.5 | 0.00 | 0.07 | 0.07 | 48 | 1010.3 |
| 20260508204100 | 52 | 316 | 4.3 | 5.2 | 0.00 | 0.07 | 0.07 | 49 | 1010.5 |
| 20260508203556 | 53 | 302 | 2.6 | 3.5 | 0.00 | 0.07 | 0.07 | 46 | 1010.5 |
| 20260508203052 | 54 | 307 | 3.5 | 6.1 | 0.00 | 0.07 | 0.07 | 45 | 1010.5 |
| 20260508202549 | 54 | 246 | 2.6 | 2.6 | 0.00 | 0.07 | 0.07 | 48 | 1010.6 |
| 20260508202047 | 53 | 206 | 1.7 | 6.1 | 0.00 | 0.07 | 0.07 | 46 | 1010.6 |
| 20260508201543 | 53 | 296 | 3.5 | 6.1 | 0.00 | 0.07 | 0.07 | 50 | 1010.8 |
| 20260508201039 | 52 | 302 | 3.5 | 6.1 | 0.00 | 0.07 | 0.07 | 48 | 1010.7 |
| 20260508200537 | 52 | 323 | 0.9 | 3.5 | 0.00 | 0.07 | 0.07 | 52 | 1010.8 |
| 20260508200032 | 51 | 17 | 1.7 | 5.2 | 0.00 | 0.07 | 0.07 | 49 | 1010.8 |
| 20260508195529 | 52 | 302 | 4.3 | 7.0 | 0.00 | 0.07 | 0.07 | 46 | 1010.9 |
| 20260508195025 | 53 | 321 | 6.1 | 9.6 | 0.00 | 0.07 | 0.07 | 46 | 1010.9 |
| 20260508194523 | 53 | 320 | 7.8 | 14.8 | 0.00 | 0.07 | 0.07 | 46 | 1011.0 |
| 20260508194020 | 54 | 320 | 1.7 | 3.5 | 0.00 | 0.07 | 0.07 | 44 | 1011.1 |
| 20260508193516 | 53 | 291 | 3.5 | 7.0 | 0.00 | 0.07 | 0.07 | 47 | 1011.1 |
| 20260508193013 | 53 | 311 | 6.1 | 9.6 | 0.00 | 0.07 | 0.07 | 46 | 1011.2 |
| 20260508192509 | 54 | 286 | 5.2 | 6.1 | 0.00 | 0.07 | 0.07 | 48 | 1011.1 |
| 20260508192007 | 53 | 356 | 1.7 | 3.5 | 0.00 | 0.07 | 0.07 | 51 | 1011.2 |
| 20260508191503 | 54 | 269 | 5.2 | 6.1 | 0.00 | 0.07 | 0.07 | 48 | 1011.0 |
| 20260508191000 | 53 | 287 | 2.6 | 6.1 | 0.00 | 0.07 | 0.07 | 53 | 1011.4 |
| 20260508190458 | 53 | 288 | 5.2 | 9.6 | 0.00 | 0.07 | 0.07 | 49 | 1011.4 |
| 20260508185953 | 53 | 303 | 3.5 | 7.0 | 0.00 | 0.07 | 0.07 | 48 | 1011.5 |
| 20260508185451 | 53 | 288 | 0.9 | 3.5 | 0.00 | 0.07 | 0.07 | 51 | 1011.3 |
| 20260508184948 | 53 | 297 | 5.2 | 9.6 | 0.00 | 0.07 | 0.07 | 52 | 1011.3 |
| 20260508184446 | 52 | 208 | 2.6 | 7.8 | 0.00 | 0.07 | 0.07 | 55 | 1011.6 |
| 20260508183942 | 53 | 299 | 3.5 | 6.1 | 0.00 | 0.07 | 0.07 | 54 | 1011.6 |
| 20260508183439 | 52 | 281 | 1.7 | 2.6 | 0.00 | 0.07 | 0.07 | 55 | 1011.5 |
| 20260508182934 | 50 | 324 | 2.6 | 6.1 | 0.00 | 0.07 | 0.07 | 55 | 1011.5 |
| 20260508182432 | 50 | 323 | 4.3 | 7.8 | 0.00 | 0.07 | 0.07 | 58 | 1011.7 |
| 20260508181931 | 50 | 305 | 3.5 | 7.0 | 0.00 | 0.07 | 0.07 | 57 | 1011.8 |
| 20260508181429 | 51 | 294 | 6.1 | 7.8 | 0.00 | 0.07 | 0.07 | 57 | 1011.8 |
| 20260508180926 | 51 | 298 | 5.2 | 7.0 | 0.00 | 0.07 | 0.07 | 57 | 1011.8 |
| 20260508180423 | 51 | 302 | 3.5 | 8.7 | 0.00 | 0.07 | 0.07 | 57 | 1011.8 |
| 20260508175919 | 51 | 305 | 8.7 | 8.7 | 0.00 | 0.07 | 0.07 | 57 | 1012.2 |
| 20260508175416 | 50 | 292 | 3.5 | 7.8 | 0.00 | 0.07 | 0.07 | 58 | 1012.0 |
| 20260508174914 | 50 | 286 | 7.8 | 11.3 | 0.00 | 0.07 | 0.07 | 60 | 1012.2 |
| 20260508174411 | 49 | 310 | 6.1 | 8.7 | 0.00 | 0.07 | 0.07 | 63 | 1012.4 |
| 20260508173907 | 48 | 244 | 3.5 | 12.2 | 0.00 | 0.07 | 0.07 | 63 | 1012.2 |
| 20260508173405 | 50 | 225 | 6.1 | 7.8 | 0.00 | 0.07 | 0.07 | 66 | 1012.4 |
| 20260508172900 | 49 | 203 | 5.2 | 7.8 | 0.00 | 0.07 | 0.07 | 67 | 1012.4 |
| 20260508172358 | 48 | 325 | 3.5 | 11.3 | 0.00 | 0.07 | 0.07 | 69 | 1012.5 |
| 20260508171854 | 48 | 250 | 2.6 | 9.6 | 0.00 | 0.07 | 0.07 | 69 | 1012.3 |
| 20260508171350 | 47 | 232 | 7.0 | 7.8 | 0.00 | 0.07 | 0.07 | 73 | 1012.4 |
| 20260508170847 | 47 | 248 | 5.2 | 7.0 | 0.00 | 0.07 | 0.07 | 69 | 1012.8 |
| 20260508170345 | 47 | 328 | 4.3 | 7.0 | 0.00 | 0.07 | 0.07 | 73 | 1012.6 |
| 20260508165841 | 46 | 239 | 3.5 | 6.1 | 0.00 | 0.07 | 0.07 | 74 | 1012.5 |
| 20260508165339 | 46 | 200 | 1.7 | 6.1 | 0.00 | 0.07 | 0.07 | 77 | 1012.6 |
| 20260508164834 | 46 | 275 | 2.6 | 6.1 | 0.00 | 0.07 | 0.07 | 70 | 1012.6 |
| 20260508164332 | 45 | 329 | 3.5 | 7.0 | 0.00 | 0.07 | 0.07 | 78 | 1012.8 |
| 20260508163830 | 45 | 221 | 0.9 | 7.8 | 0.00 | 0.07 | 0.07 | 75 | 1012.8 |
| 20260508163327 | 45 | 287 | 3.5 | 7.8 | 0.00 | 0.07 | 0.07 | 75 | 1012.8 |
| 20260508162822 | 45 | 191 | 2.6 | 7.8 | 0.00 | 0.07 | 0.07 | 75 | 1013.0 |
| 20260508162319 | 45 | 271 | 5.2 | 7.0 | 0.00 | 0.07 | 0.07 | 74 | 1012.9 |
| 20260508161817 | 45 | 216 | 7.0 | 8.7 | 0.00 | 0.07 | 0.07 | 75 | 1013.0 |
| 20260508161314 | 45 | 232 | 3.5 | 5.2 | 0.00 | 0.07 | 0.07 | 72 | 1012.8 |
| 20260508160811 | 45 | 231 | 2.6 | 2.6 | 0.00 | 0.07 | 0.07 | 75 | 1012.9 |
| 20260508160310 | 45 | 221 | 1.7 | 2.6 | 0.00 | 0.07 | 0.07 | 76 | 1012.8 |
| 20260508155806 | 45 | 337 | 0.0 | 0.9 | 0.00 | 0.07 | 0.07 | 76 | 1013.0 |
| 20260508155306 | 44 | 238 | 1.7 | 2.6 | 0.00 | 0.07 | 0.07 | 78 | 1012.9 |
| 20260508154759 | 43 | 222 | 1.7 | 2.6 | 0.00 | 0.07 | 0.07 | 81 | 1013.1 |
| 20260508154258 | 42 | 228 | 0.9 | 1.7 | 0.00 | 0.07 | 0.07 | 83 | 1012.7 |
| 20260508153753 | 42 | 312 | 1.7 | 1.7 | 0.00 | 0.07 | 0.07 | 84 | 1012.9 |
| 20260508153251 | 42 | 282 | 0.9 | 3.5 | 0.00 | 0.07 | 0.07 | 88 | 1012.9 |
| 20260508152747 | 43 | 330 | 1.7 | 5.2 | 0.00 | 0.07 | 0.07 | 88 | 1012.7 |
| 20260508152243 | 41 | 232 | 0.0 | 1.7 | 0.00 | 0.07 | 0.07 | 89 | 1012.7 |
| 20260508151740 | 40 | 253 | 0.0 | 0.9 | 0.00 | 0.07 | 0.07 | 91 | 1012.9 |
| 20260508151237 | 41 | 316 | 3.5 | 5.2 | 0.00 | 0.07 | 0.07 | 91 | 1013.0 |
| 20260508150733 | 39 | 296 | 0.9 | 1.7 | 0.00 | 0.07 | 0.07 | 92 | 1012.8 |
| 20260508150230 | 39 | 261 | 1.7 | 2.6 | 0.00 | 0.07 | 0.07 | 91 | 1012.8 |
| 20260508145726 | 40 | 293 | 0.9 | 3.5 | 0.00 | 0.07 | 0.07 | 91 | 1012.7 |
| 20260508145222 | 40 | 333 | 0.9 | 1.7 | 0.00 | 0.07 | 0.07 | 94 | 1012.8 |
| 20260508144720 | 40 | 251 | 1.7 | 2.6 | 0.00 | 0.07 | 0.07 | 93 | 1012.8 |
| 20260508144218 | 38 | 284 | 1.7 | 5.2 | 0.00 | 0.07 | 0.07 | 94 | 1012.8 |
| 20260508143715 | 38 | 257 | 0.0 | 0.9 | 0.00 | 0.07 | 0.07 | 95 | 1012.6 |
| 20260508143212 | 37 | 271 | 0.0 | 0.9 | 0.00 | 0.07 | 0.07 | 95 | 1012.6 |
| 20260508142708 | 37 | 265 | 0.0 | 1.7 | 0.00 | 0.07 | 0.07 | 95 | 1012.8 |
| 20260508142205 | 37 | 334 | 1.7 | 1.7 | 0.00 | 0.07 | 0.07 | 95 | 1012.8 |
| 20260508141701 | 36 | 96 | 0.9 | 1.7 | 0.00 | 0.07 | 0.07 | 95 | 1012.7 |
| 20260508141159 | 36 | 96 | 0.9 | 1.7 | 0.00 | 0.07 | 0.07 | 95 | 1012.3 |
| 20260508140656 | 35 | 109 | 2.6 | 2.6 | 0.00 | 0.07 | 0.07 | 94 | 1012.5 |
| 20260508140153 | 35 | 61 | 1.7 | 1.7 | 0.07 | 0.07 | 0.07 | 94 | 1012.9 |
| 20260508135649 | 35 | 315 | 0.0 | 0.9 | 0.00 | 0.06 | 0.06 | 94 | 1013.0 |
| 20260508135144 | 35 | 325 | 0.9 | 1.7 | 0.00 | 0.06 | 0.06 | 93 | 1013.0 |
| 20260508134641 | 36 | 315 | 1.7 | 2.6 | 0.00 | 0.06 | 0.06 | 93 | 1013.0 |
| 20260508134138 | 36 | 309 | 1.7 | 2.6 | 0.00 | 0.06 | 0.06 | 93 | 1012.6 |
| 20260508133635 | 36 | 296 | 0.9 | 1.7 | 0.00 | 0.06 | 0.06 | 93 | 1012.5 |
| 20260508133132 | 36 | 301 | 0.9 | 0.9 | 0.00 | 0.06 | 0.06 | 93 | 1012.2 |
| 20260508132630 | 36 | 291 | 0.9 | 0.9 | 0.05 | 0.06 | 0.06 | 93 | 1012.5 |
| 20260508132127 | 36 | 269 | 0.9 | 0.9 | 0.05 | 0.06 | 0.06 | 92 | 1012.5 |
| 20260508131622 | 36 | 331 | 0.9 | 1.7 | 0.07 | 0.05 | 0.05 | 92 | 1012.6 |
| 20260508131119 | 36 | 312 | 1.7 | 2.6 | 0.07 | 0.05 | 0.05 | 92 | 1012.6 |
| 20260508130616 | 36 | 290 | 0.9 | 2.6 | 0.00 | 0.04 | 0.04 | 91 | 1012.7 |
| 20260508130113 | 36 | 278 | 0.9 | 1.7 | 0.05 | 0.04 | 0.04 | 91 | 1012.5 |